createdAt,value
2022-09-15T00:01:00.922Z,98634.47
2022-09-15T00:02:04.010Z,98633.82
2022-09-15T00:03:08.819Z,98638.94
2022-09-15T00:04:11.459Z,98638.12
2022-09-15T00:05:13.948Z,98629.52
2022-09-15T00:06:17.610Z,98636.30
2022-09-15T00:07:20.101Z,98635.84
2022-09-15T00:08:22.554Z,98642.13
2022-09-15T00:09:25.066Z,98636.84
2022-09-15T00:10:27.708Z,98631.09
2022-09-15T00:11:30.270Z,98638.20
2022-09-15T00:12:33.026Z,98634.93
2022-09-15T00:13:35.675Z,98636.75
2022-09-15T00:14:38.152Z,98638.57
2022-09-15T00:15:40.599Z,98644.23
2022-09-15T00:16:43.502Z,98647.67
2022-09-15T00:17:46.131Z,98638.48
2022-09-15T00:18:48.639Z,98642.13
2022-09-15T00:19:51.131Z,98644.11
2022-09-15T00:20:54.107Z,98635.34
2022-09-15T00:21:56.761Z,98637.53
2022-09-15T00:22:59.209Z,98644.02
2022-09-15T00:24:01.672Z,98646.83
2022-09-15T00:25:04.139Z,98641.91
2022-09-15T00:26:07.092Z,98648.69
2022-09-15T00:27:09.757Z,98647.40
2022-09-15T00:28:12.241Z,98647.73
2022-09-15T00:29:14.703Z,98644.30
2022-09-15T00:30:17.785Z,98644.46
2022-09-15T00:31:20.296Z,98650.94
2022-09-15T00:32:22.784Z,98649.29
2022-09-15T00:33:25.231Z,98657.59
2022-09-15T00:34:27.682Z,98652.66
2022-09-15T00:35:30.263Z,98652.66
2022-09-15T00:36:34.124Z,98658.48
2022-09-15T00:37:36.572Z,98655.38
2022-09-15T00:38:39.027Z,98655.51
2022-09-15T00:39:41.484Z,98659.97
2022-09-15T00:40:44.281Z,98653.03
2022-09-15T00:41:46.770Z,98655.05
2022-09-15T00:42:50.130Z,98659.87
2022-09-15T00:43:52.863Z,98652.10
2022-09-15T00:44:55.462Z,98649.92
2022-09-15T00:45:57.974Z,98648.47
2022-09-15T00:47:18.350Z,98645.99
2022-09-15T00:48:04.857Z,98650.28
2022-09-15T00:49:07.367Z,98648.47
2022-09-15T00:50:10.309Z,98657.39
2022-09-15T00:51:13.131Z,98647.02
2022-09-15T00:52:15.612Z,98650.65
2022-09-15T00:53:18.053Z,98647.34
2022-09-15T00:54:20.952Z,98651.83
2022-09-15T00:55:23.736Z,98656.92
2022-09-15T00:56:26.727Z,98653.45
2022-09-15T00:57:29.195Z,98656.46
2022-09-15T00:58:31.987Z,98653.19
2022-09-15T00:59:34.493Z,98657.64
2022-09-15T01:00:37.343Z,98655.17
2022-09-15T01:01:40.156Z,98655.83
2022-09-15T01:02:43.094Z,98650.70
2022-09-15T01:03:45.580Z,98654.70
2022-09-15T01:04:48.031Z,98659.83
2022-09-15T01:05:50.473Z,98659.98
2022-09-15T01:06:53.064Z,98662.00
2022-09-15T01:07:55.749Z,98664.45
2022-09-15T01:08:58.191Z,98663.29
2022-09-15T01:10:01.016Z,98664.75
2022-09-15T01:11:03.464Z,98669.38
2022-09-15T01:12:05.975Z,98666.73
2022-09-15T01:13:08.415Z,98658.64
2022-09-15T01:14:10.863Z,98672.31
2022-09-15T01:15:13.570Z,98662.58
2022-09-15T01:16:17.180Z,98663.03
2022-09-15T01:17:19.833Z,98664.69
2022-09-15T01:18:22.272Z,98674.08
2022-09-15T01:19:24.719Z,98666.34
2022-09-15T01:20:28.068Z,98668.42
2022-09-15T01:21:31.624Z,98669.25
2022-09-15T01:22:34.158Z,98671.73
2022-09-15T01:23:36.638Z,98670.91
2022-09-15T01:24:39.088Z,98668.09
2022-09-15T01:25:41.529Z,98674.37
2022-09-15T01:26:44.391Z,98666.80
2022-09-15T01:27:46.858Z,98662.34
2022-09-15T01:28:49.321Z,98670.91
2022-09-15T01:29:51.763Z,98661.98
2022-09-15T01:30:54.406Z,98677.02
2022-09-15T01:31:56.930Z,98670.38
2022-09-15T01:32:59.738Z,98671.38
2022-09-15T01:34:02.174Z,98674.18
2022-09-15T01:35:04.663Z,98675.20
2022-09-15T01:36:07.512Z,98672.56
2022-09-15T01:37:10.038Z,98671.53
2022-09-15T01:38:12.528Z,98676.83
2022-09-15T01:39:14.975Z,98669.22
2022-09-15T01:40:18.844Z,98665.39
2022-09-15T01:41:21.520Z,98663.23
2022-09-15T01:42:24.096Z,98668.16
2022-09-15T01:43:26.773Z,98668.80
2022-09-15T01:44:29.208Z,98669.45
2022-09-15T01:45:31.758Z,98669.25
2022-09-15T01:46:35.454Z,98669.72
2022-09-15T01:47:37.900Z,98667.37
2022-09-15T01:48:40.394Z,98666.01
2022-09-15T01:49:42.838Z,98660.34
2022-09-15T01:50:45.476Z,98663.82
2022-09-15T01:51:48.131Z,98663.28
2022-09-15T01:52:50.571Z,98658.25
2022-09-15T01:53:53.317Z,98661.56
2022-09-15T01:54:55.763Z,98665.48
2022-09-15T01:55:58.209Z,98661.64
2022-09-15T01:57:00.855Z,98655.19
2022-09-15T01:58:03.336Z,98651.34
2022-09-15T01:59:06.165Z,98661.94
2022-09-15T02:00:09.212Z,98653.83
2022-09-15T02:01:11.692Z,98655.27
2022-09-15T02:02:14.570Z,98651.63
2022-09-15T02:03:17.441Z,98649.78
2022-09-15T02:04:19.930Z,98651.63
2022-09-15T02:05:22.866Z,98649.78
2022-09-15T02:06:25.811Z,98648.98
2022-09-15T02:07:28.245Z,98640.59
2022-09-15T02:08:30.695Z,98646.42
2022-09-15T02:09:33.220Z,98638.48
2022-09-15T02:10:35.852Z,98649.07
2022-09-15T02:11:38.294Z,98648.62
2022-09-15T02:12:40.733Z,98654.91
2022-09-15T02:13:43.183Z,98646.30
2022-09-15T02:14:45.678Z,98658.25
2022-09-15T02:15:48.279Z,98654.52
2022-09-15T02:16:50.998Z,98649.14
2022-09-15T02:17:53.466Z,98647.66
2022-09-15T02:18:55.947Z,98648.39
2022-09-15T02:19:58.410Z,98647.93
2022-09-15T02:21:01.350Z,98659.50
2022-09-15T02:22:04.291Z,98656.39
2022-09-15T02:23:06.929Z,98656.93
2022-09-15T02:24:09.385Z,98652.83
2022-09-15T02:25:11.860Z,98650.72
2022-09-15T02:26:14.716Z,98654.69
2022-09-15T02:27:17.155Z,98662.34
2022-09-15T02:28:19.714Z,98653.92
2022-09-15T02:29:22.157Z,98654.12
2022-09-15T02:30:25.329Z,98659.56
2022-09-15T02:31:27.831Z,98657.92
2022-09-15T02:32:30.412Z,98659.30
2022-09-15T02:33:32.850Z,98663.45
2022-09-15T02:34:35.280Z,98657.70
2022-09-15T02:35:38.025Z,98658.53
2022-09-15T02:36:40.777Z,98645.31
2022-09-15T02:37:43.225Z,98655.58
2022-09-15T02:38:45.660Z,98667.50
2022-09-15T02:39:48.130Z,98658.95
2022-09-15T02:40:51.174Z,98657.76
2022-09-15T02:41:54.117Z,98657.76
2022-09-15T02:42:56.752Z,98656.30
2022-09-15T02:43:59.241Z,98661.75
2022-09-15T02:45:02.012Z,98659.94
2022-09-15T02:46:04.825Z,98664.23
2022-09-15T02:47:07.226Z,98666.81
2022-09-15T02:48:09.913Z,98669.78
2022-09-15T02:49:12.530Z,98664.70
2022-09-15T02:50:16.778Z,98666.67
2022-09-15T02:51:19.267Z,98671.80
2022-09-15T02:52:21.702Z,98666.52
2022-09-15T02:53:24.147Z,98671.63
2022-09-15T02:54:26.615Z,98673.61
2022-09-15T02:55:29.097Z,98675.27
2022-09-15T02:56:32.741Z,98677.71
2022-09-15T02:57:35.181Z,98683.00
2022-09-15T02:58:37.614Z,98677.91
2022-09-15T02:59:40.050Z,98668.33
2022-09-15T03:00:42.767Z,98671.80
2022-09-15T03:01:45.436Z,98673.92
2022-09-15T03:02:48.086Z,98672.57
2022-09-15T03:03:50.523Z,98673.56
2022-09-15T03:04:52.987Z,98679.01
2022-09-15T03:05:55.446Z,98671.08
2022-09-15T03:06:58.226Z,98670.92
2022-09-15T03:08:00.656Z,98676.20
2022-09-15T03:09:03.092Z,98674.19
2022-09-15T03:10:05.832Z,98675.02
2022-09-15T03:11:08.270Z,98674.19
2022-09-15T03:12:10.736Z,98666.09
2022-09-15T03:13:13.180Z,98665.73
2022-09-15T03:14:15.622Z,98662.11
2022-09-15T03:15:18.054Z,98663.56
2022-09-15T03:16:22.352Z,98662.58
2022-09-15T03:17:24.883Z,98661.75
2022-09-15T03:18:27.356Z,98652.83
2022-09-15T03:19:29.787Z,98644.23
2022-09-15T03:20:32.521Z,98650.55
2022-09-15T03:21:34.960Z,98656.46
2022-09-15T03:22:37.938Z,98658.41
2022-09-15T03:23:40.680Z,98658.05
2022-09-15T03:24:43.236Z,98654.05
2022-09-15T03:25:45.671Z,98655.17
2022-09-15T03:26:48.215Z,98652.99
2022-09-15T03:27:50.697Z,98656.10
2022-09-15T03:28:53.158Z,98658.41
2022-09-15T03:29:55.676Z,98660.70
2022-09-15T03:30:58.341Z,98657.85
2022-09-15T03:32:00.814Z,98658.51
2022-09-15T03:33:03.381Z,98663.44
2022-09-15T03:34:05.867Z,98670.02
2022-09-15T03:35:08.305Z,98669.64
2022-09-15T03:36:11.039Z,98667.29
2022-09-15T03:37:13.493Z,98661.80
2022-09-15T03:38:15.957Z,98671.22
2022-09-15T03:39:18.393Z,98660.11
2022-09-15T03:40:21.723Z,98665.03
2022-09-15T03:41:24.194Z,98671.77
2022-09-15T03:42:26.634Z,98669.41
2022-09-15T03:43:29.204Z,98663.92
2022-09-15T03:44:31.641Z,98662.76
2022-09-15T03:45:34.131Z,98667.68
2022-09-15T03:46:36.869Z,98664.66
2022-09-15T03:47:39.314Z,98667.31
2022-09-15T03:48:41.813Z,98673.88
2022-09-15T03:49:44.250Z,98663.95
2022-09-15T03:50:47.203Z,98668.05
2022-09-15T03:51:49.653Z,98670.53
2022-09-15T03:52:54.529Z,98663.66
2022-09-15T03:53:56.486Z,98667.14
2022-09-15T03:54:58.927Z,98661.84
2022-09-15T03:56:01.361Z,98669.41
2022-09-15T03:57:03.821Z,98676.98
2022-09-15T03:58:06.773Z,98674.33
2022-09-15T03:59:09.253Z,98669.03
2022-09-15T04:00:13.119Z,98670.69
2022-09-15T04:01:15.827Z,98669.86
2022-09-15T04:02:18.731Z,98668.49
2022-09-15T04:03:21.170Z,98676.64
2022-09-15T04:04:23.675Z,98679.73
2022-09-15T04:05:26.148Z,98681.36
2022-09-15T04:06:29.098Z,98681.45
2022-09-15T04:07:31.546Z,98682.48
2022-09-15T04:08:34.076Z,98679.00
2022-09-15T04:09:36.679Z,98676.73
2022-09-15T04:10:39.434Z,98678.55
2022-09-15T04:11:41.874Z,98672.27
2022-09-15T04:12:44.327Z,98665.48
2022-09-15T04:13:46.840Z,98669.78
2022-09-15T04:14:49.306Z,98673.88
2022-09-15T04:15:51.794Z,98672.88
2022-09-15T04:16:54.517Z,98675.36
2022-09-15T04:17:56.961Z,98677.55
2022-09-15T04:18:59.404Z,98683.02
2022-09-15T04:20:01.875Z,98672.27
2022-09-15T04:21:04.515Z,98680.38
2022-09-15T04:22:06.968Z,98680.38
2022-09-15T04:23:09.415Z,98680.83
2022-09-15T04:24:11.855Z,98686.95
2022-09-15T04:25:14.328Z,98685.95
2022-09-15T04:26:17.985Z,98680.28
2022-09-15T04:27:20.429Z,98681.56
2022-09-15T04:28:22.868Z,98678.26
2022-09-15T04:29:25.329Z,98682.38
2022-09-15T04:30:28.640Z,98685.75
2022-09-15T04:31:31.176Z,98682.27
2022-09-15T04:32:33.643Z,98689.22
2022-09-15T04:33:36.084Z,98679.08
2022-09-15T04:34:41.367Z,98689.13
2022-09-15T04:35:42.923Z,98682.84
2022-09-15T04:36:45.630Z,98678.16
2022-09-15T04:37:48.075Z,98683.73
2022-09-15T04:38:50.625Z,98685.02
2022-09-15T04:39:53.269Z,98685.27
2022-09-15T04:40:56.057Z,98684.92
2022-09-15T04:41:58.899Z,98691.66
2022-09-15T04:43:01.559Z,98692.28
2022-09-15T04:44:04.002Z,98690.29
2022-09-15T04:45:06.450Z,98685.37
2022-09-15T04:46:10.555Z,98682.89
2022-09-15T04:47:12.978Z,98686.20
2022-09-15T04:48:15.514Z,98689.84
2022-09-15T04:49:17.958Z,98687.64
2022-09-15T04:50:22.221Z,98685.16
2022-09-15T04:51:24.693Z,98688.19
2022-09-15T04:52:27.135Z,98674.77
2022-09-15T04:53:29.585Z,98681.69
2022-09-15T04:54:32.024Z,98676.05
2022-09-15T04:55:34.469Z,98680.97
2022-09-15T04:56:37.259Z,98686.27
2022-09-15T04:57:39.902Z,98688.91
2022-09-15T04:58:42.759Z,98686.27
2022-09-15T04:59:45.227Z,98683.79
2022-09-15T05:00:48.201Z,98678.05
2022-09-15T05:01:51.236Z,98677.42
2022-09-15T05:02:54.096Z,98677.59
2022-09-15T05:03:56.542Z,98679.87
2022-09-15T05:04:59.184Z,98672.67
2022-09-15T05:06:01.636Z,98675.70
2022-09-15T05:07:04.130Z,98669.75
2022-09-15T05:08:06.864Z,98670.75
2022-09-15T05:09:10.587Z,98670.58
2022-09-15T05:10:13.726Z,98676.32
2022-09-15T05:11:16.369Z,98670.65
2022-09-15T05:12:18.862Z,98672.13
2022-09-15T05:13:21.403Z,98672.02
2022-09-15T05:14:23.851Z,98662.31
2022-09-15T05:15:26.289Z,98663.14
2022-09-15T05:16:29.545Z,98670.89
2022-09-15T05:17:32.140Z,98673.84
2022-09-15T05:18:34.592Z,98671.45
2022-09-15T05:19:37.041Z,98675.73
2022-09-15T05:20:39.782Z,98669.42
2022-09-15T05:21:42.941Z,98671.70
2022-09-15T05:22:45.865Z,98672.34
2022-09-15T05:23:48.378Z,98668.66
2022-09-15T05:24:50.821Z,98671.76
2022-09-15T05:25:53.467Z,98675.89
2022-09-15T05:26:56.103Z,98670.02
2022-09-15T05:27:58.848Z,98664.72
2022-09-15T05:29:01.283Z,98668.38
2022-09-15T05:30:34.786Z,98676.50
2022-09-15T05:31:08.572Z,98667.99
2022-09-15T05:32:11.067Z,98678.21
2022-09-15T05:33:13.543Z,98671.73
2022-09-15T05:34:16.059Z,98674.17
2022-09-15T05:35:18.502Z,98668.14
2022-09-15T05:36:22.764Z,98664.27
2022-09-15T05:37:25.200Z,98664.53
2022-09-15T05:38:28.017Z,98665.80
2022-09-15T05:39:30.490Z,98668.24
2022-09-15T05:40:33.728Z,98660.11
2022-09-15T05:41:36.623Z,98660.55
2022-09-15T05:42:39.568Z,98660.16
2022-09-15T05:43:42.490Z,98662.24
2022-09-15T05:44:44.938Z,98660.64
2022-09-15T05:45:47.384Z,98665.20
2022-09-15T05:46:50.315Z,98670.73
2022-09-15T05:47:52.834Z,98672.77
2022-09-15T05:48:55.354Z,98668.54
2022-09-15T05:49:57.835Z,98660.37
2022-09-15T05:51:00.592Z,98667.94
2022-09-15T05:52:03.034Z,98662.06
2022-09-15T05:53:05.482Z,98656.36
2022-09-15T05:54:07.952Z,98665.64
2022-09-15T05:55:10.474Z,98668.33
2022-09-15T05:56:13.658Z,98667.91
2022-09-15T05:57:16.123Z,98664.46
2022-09-15T05:58:18.572Z,98667.64
2022-09-15T05:59:21.296Z,98670.30
2022-09-15T06:00:24.347Z,98667.64
2022-09-15T06:01:27.049Z,98673.56
2022-09-15T06:02:29.678Z,98673.80
2022-09-15T06:03:32.264Z,98673.02
2022-09-15T06:04:35.066Z,98666.02
2022-09-15T06:05:37.573Z,98673.16
2022-09-15T06:06:40.367Z,98681.77
2022-09-15T06:07:43.916Z,98676.30
2022-09-15T06:08:48.109Z,98682.63
2022-09-15T06:09:50.787Z,98691.20
2022-09-15T06:10:53.457Z,98683.63
2022-09-15T06:11:56.098Z,98683.63
2022-09-15T06:12:58.554Z,98684.42
2022-09-15T06:14:01.040Z,98685.61
2022-09-15T06:15:03.613Z,98684.42
2022-09-15T06:16:06.609Z,98682.59
2022-09-15T06:17:09.289Z,98688.91
2022-09-15T06:18:11.751Z,98685.03
2022-09-15T06:19:14.203Z,98685.68
2022-09-15T06:20:17.799Z,98692.61
2022-09-15T06:21:20.253Z,98690.59
2022-09-15T06:22:22.933Z,98703.30
2022-09-15T06:23:25.481Z,98689.37
2022-09-15T06:24:27.965Z,98689.37
2022-09-15T06:25:30.560Z,98686.13
2022-09-15T06:26:33.537Z,98689.03
2022-09-15T06:27:35.987Z,98689.03
2022-09-15T06:28:38.427Z,98691.84
2022-09-15T06:29:40.864Z,98685.34
2022-09-15T06:30:43.938Z,98696.23
2022-09-15T06:31:46.432Z,98689.92
2022-09-15T06:32:48.977Z,98689.92
2022-09-15T06:33:51.629Z,98698.75
2022-09-15T06:34:54.261Z,98687.34
2022-09-15T06:35:56.742Z,98695.75
2022-09-15T06:36:59.628Z,98699.25
2022-09-15T06:38:02.272Z,98703.98
2022-09-15T06:39:04.715Z,98698.50
2022-09-15T06:40:07.584Z,98699.55
2022-09-15T06:41:10.234Z,98700.83
2022-09-15T06:42:13.988Z,98699.21
2022-09-15T06:43:17.151Z,98701.47
2022-09-15T06:44:19.590Z,98700.45
2022-09-15T06:45:22.027Z,98695.13
2022-09-15T06:46:25.242Z,98697.59
2022-09-15T06:47:27.869Z,98703.33
2022-09-15T06:48:30.334Z,98699.64
2022-09-15T06:49:32.867Z,98698.21
2022-09-15T06:50:35.531Z,98704.36
2022-09-15T06:51:38.062Z,98700.88
2022-09-15T06:52:40.503Z,98705.78
2022-09-15T06:53:42.950Z,98706.21
2022-09-15T06:54:45.382Z,98703.33
2022-09-15T06:55:47.827Z,98712.76
2022-09-15T06:56:50.659Z,98702.08
2022-09-15T06:57:53.334Z,98714.78
2022-09-15T06:58:55.775Z,98704.13
2022-09-15T06:59:58.214Z,98704.14
2022-09-15T07:01:01.267Z,98708.64
2022-09-15T07:02:05.307Z,98711.91
2022-09-15T07:03:08.669Z,98708.03
2022-09-15T07:04:11.511Z,98712.73
2022-09-15T07:05:14.137Z,98718.47
2022-09-15T07:06:17.705Z,98713.53
2022-09-15T07:07:20.356Z,98713.51
2022-09-15T07:08:22.811Z,98717.14
2022-09-15T07:09:25.306Z,98712.52
2022-09-15T07:10:29.359Z,98719.21
2022-09-15T07:11:31.821Z,98718.12
2022-09-15T07:12:34.295Z,98721.70
2022-09-15T07:13:36.757Z,98720.42
2022-09-15T07:14:39.343Z,98721.26
2022-09-15T07:15:41.784Z,98726.61
2022-09-15T07:16:44.466Z,98722.62
2022-09-15T07:17:47.203Z,98721.14
2022-09-15T07:18:49.658Z,98722.92
2022-09-15T07:19:52.100Z,98721.77
2022-09-15T07:20:54.779Z,98721.53
2022-09-15T07:21:57.225Z,98719.16
2022-09-15T07:23:00.110Z,98723.15
2022-09-15T07:24:06.408Z,98714.77
2022-09-15T07:25:06.897Z,98714.84
2022-09-15T07:26:09.957Z,98712.41
2022-09-15T07:27:12.592Z,98708.30
2022-09-15T07:28:15.255Z,98711.17
2022-09-15T07:29:17.740Z,98705.92
2022-09-15T07:30:20.891Z,98708.61
2022-09-15T07:31:23.375Z,98705.44
2022-09-15T07:32:25.913Z,98707.64
2022-09-15T07:33:28.371Z,98705.41
2022-09-15T07:34:31.006Z,98706.74
2022-09-15T07:35:33.452Z,98710.81
2022-09-15T07:36:35.990Z,98705.18
2022-09-15T07:37:38.449Z,98703.65
2022-09-15T07:38:41.126Z,98706.03
2022-09-15T07:39:43.584Z,98703.73
2022-09-15T07:40:46.435Z,98703.73
2022-09-15T07:41:49.074Z,98703.44
2022-09-15T07:42:51.752Z,98706.75
2022-09-15T07:43:54.259Z,98703.55
2022-09-15T07:44:56.710Z,98706.24
2022-09-15T07:45:59.261Z,98713.17
2022-09-15T07:47:02.150Z,98713.63
2022-09-15T07:48:04.587Z,98708.67
2022-09-15T07:49:07.064Z,98708.56
2022-09-15T07:50:10.107Z,98709.00
2022-09-15T07:51:12.553Z,98707.02
2022-09-15T07:52:14.995Z,98708.95
2022-09-15T07:53:17.484Z,98708.38
2022-09-15T07:54:22.855Z,98705.69
2022-09-15T07:55:24.416Z,98703.77
2022-09-15T07:56:27.667Z,98700.38
2022-09-15T07:57:30.183Z,98696.67
2022-09-15T07:58:32.619Z,98701.99
2022-09-15T07:59:39.340Z,98697.13
2022-09-15T08:00:39.921Z,98690.70
2022-09-15T08:01:42.534Z,98695.42
2022-09-15T08:02:45.028Z,98693.64
2022-09-15T08:03:47.867Z,98689.80
2022-09-15T08:04:51.627Z,98680.59
2022-09-15T08:05:54.463Z,98684.98
2022-09-15T08:06:57.100Z,98678.06
2022-09-15T08:07:59.537Z,98679.80
2022-09-15T08:09:02.188Z,98683.45
2022-09-15T08:10:05.171Z,98685.05
2022-09-15T08:11:07.654Z,98670.84
2022-09-15T08:12:10.508Z,98672.95
2022-09-15T08:13:13.147Z,98665.08
2022-09-15T08:14:15.635Z,98667.06
2022-09-15T08:15:18.198Z,98665.50
2022-09-15T08:16:21.185Z,98672.33
2022-09-15T08:17:23.723Z,98668.06
2022-09-15T08:18:26.171Z,98673.76
2022-09-15T08:19:28.620Z,98664.63
2022-09-15T08:20:31.216Z,98669.73
2022-09-15T08:21:33.849Z,98659.70
2022-09-15T08:22:36.484Z,98655.23
2022-09-15T08:23:38.945Z,98659.28
2022-09-15T08:24:41.600Z,98660.92
2022-09-15T08:25:44.067Z,98660.25
2022-09-15T08:26:46.910Z,98665.84
2022-09-15T08:27:49.366Z,98656.34
2022-09-15T08:28:51.888Z,98654.53
2022-09-15T08:29:54.652Z,98655.47
2022-09-15T08:30:57.725Z,98649.94
2022-09-15T08:32:00.519Z,98651.30
2022-09-15T08:33:02.958Z,98655.41
2022-09-15T08:34:05.397Z,98654.43
2022-09-15T08:35:08.032Z,98653.15
2022-09-15T08:36:10.963Z,98648.67
2022-09-15T08:37:13.399Z,98653.08
2022-09-15T08:38:15.847Z,98650.92
2022-09-15T08:39:18.290Z,98653.61
2022-09-15T08:40:21.390Z,98654.80
2022-09-15T08:41:23.999Z,98653.32
2022-09-15T08:42:26.649Z,98649.69
2022-09-15T08:43:29.296Z,98639.22
2022-09-15T08:44:31.738Z,98647.60
2022-09-15T08:45:34.430Z,98647.89
2022-09-15T08:46:37.472Z,98649.30
2022-09-15T08:47:40.115Z,98646.60
2022-09-15T08:48:42.578Z,98640.67
2022-09-15T08:49:52.071Z,98643.80
2022-09-15T08:50:49.829Z,98643.20
2022-09-15T08:51:52.355Z,98648.84
2022-09-15T08:52:54.861Z,98649.90
2022-09-15T08:53:57.578Z,98643.12
2022-09-15T08:55:00.058Z,98644.46
2022-09-15T08:56:02.606Z,98650.33
2022-09-15T08:57:05.114Z,98653.71
2022-09-15T08:58:07.710Z,98648.16
2022-09-15T08:59:10.165Z,98647.98
2022-09-15T09:00:13.213Z,98643.05
2022-09-15T09:01:16.071Z,98641.52
2022-09-15T09:02:19.005Z,98645.63
2022-09-15T09:03:21.555Z,98645.88
2022-09-15T09:04:23.992Z,98645.33
2022-09-15T09:05:26.457Z,98649.69
2022-09-15T09:06:29.314Z,98648.67
2022-09-15T09:07:31.846Z,98646.81
2022-09-15T09:08:34.296Z,98643.58
2022-09-15T09:09:36.751Z,98640.59
2022-09-15T09:10:39.608Z,98638.44
2022-09-15T09:11:42.115Z,98639.48
2022-09-15T09:12:44.596Z,98633.22
2022-09-15T09:13:47.345Z,98639.15
2022-09-15T09:14:49.795Z,98639.42
2022-09-15T09:15:52.675Z,98641.84
2022-09-15T09:16:55.516Z,98639.20
2022-09-15T09:17:58.011Z,98636.50
2022-09-15T09:19:00.658Z,98648.34
2022-09-15T09:20:03.657Z,98635.69
2022-09-15T09:21:06.395Z,98642.48
2022-09-15T09:22:08.862Z,98640.18
2022-09-15T09:23:11.499Z,98628.14
2022-09-15T09:24:13.981Z,98634.73
2022-09-15T09:25:27.096Z,98633.43
2022-09-15T09:26:22.612Z,98633.80
2022-09-15T09:27:25.058Z,98634.20
2022-09-15T09:28:27.542Z,98629.92
2022-09-15T09:29:30.090Z,98631.02
2022-09-15T09:30:32.864Z,98586.02
2022-09-15T09:31:35.309Z,98635.05
2022-09-15T09:32:37.909Z,98627.42
2022-09-15T09:33:45.106Z,98625.28
2022-09-15T09:34:45.066Z,98632.03
2022-09-15T09:35:47.537Z,98629.13
2022-09-15T09:36:50.399Z,98625.14
2022-09-15T09:37:52.863Z,98627.83
2022-09-15T09:38:55.339Z,98630.02
2022-09-15T09:39:58.112Z,98623.27
2022-09-15T09:41:02.609Z,98628.16
2022-09-15T09:42:05.428Z,98629.27
2022-09-15T09:43:07.887Z,98635.22
2022-09-15T09:44:10.376Z,98634.94
2022-09-15T09:45:12.854Z,98635.20
2022-09-15T09:46:15.972Z,98622.16
2022-09-15T09:47:18.481Z,98632.96
2022-09-15T09:48:20.994Z,98627.30
2022-09-15T09:49:23.772Z,98634.81
2022-09-15T09:50:27.323Z,98639.67
2022-09-15T09:51:29.868Z,98642.13
2022-09-15T09:52:32.346Z,98635.39
2022-09-15T09:53:34.807Z,98635.91
2022-09-15T09:54:37.308Z,98634.30
2022-09-15T09:55:39.756Z,98634.30
2022-09-15T09:56:42.627Z,98630.78
2022-09-15T09:57:45.110Z,98643.20
2022-09-15T09:58:47.558Z,98638.55
2022-09-15T09:59:50.040Z,98639.60
2022-09-15T10:00:52.697Z,98639.47
2022-09-15T10:01:55.415Z,98630.77
2022-09-15T10:02:57.991Z,98627.45
2022-09-15T10:04:00.458Z,98635.17
2022-09-15T10:05:03.017Z,98640.13
2022-09-15T10:06:05.819Z,98636.66
2022-09-15T10:07:08.272Z,98642.23
2022-09-15T10:08:11.149Z,98636.00
2022-09-15T10:09:13.705Z,98639.91
2022-09-15T10:10:18.003Z,98635.10
2022-09-15T10:11:20.444Z,98642.16
2022-09-15T10:12:22.922Z,98641.63
2022-09-15T10:13:25.633Z,98633.98
2022-09-15T10:14:28.183Z,98642.22
2022-09-15T10:15:30.661Z,98640.03
2022-09-15T10:16:33.342Z,98638.82
2022-09-15T10:17:35.857Z,98639.27
2022-09-15T10:18:38.317Z,98641.86
2022-09-15T10:19:40.764Z,98643.16
2022-09-15T10:20:43.533Z,98637.66
2022-09-15T10:21:46.082Z,98636.66
2022-09-15T10:22:48.737Z,98631.27
2022-09-15T10:23:51.518Z,98634.63
2022-09-15T10:24:54.376Z,98630.73
2022-09-15T10:26:00.557Z,98633.98
2022-09-15T10:27:01.333Z,98632.80
2022-09-15T10:28:03.780Z,98632.77
2022-09-15T10:29:06.269Z,98637.65
2022-09-15T10:30:09.217Z,98631.19
2022-09-15T10:31:11.695Z,98632.41
2022-09-15T10:32:14.370Z,98632.22
2022-09-15T10:33:16.981Z,98631.23
2022-09-15T10:34:19.435Z,98629.41
2022-09-15T10:35:22.100Z,98626.36
2022-09-15T10:36:24.989Z,98631.27
2022-09-15T10:37:27.436Z,98629.08
2022-09-15T10:38:29.985Z,98631.95
2022-09-15T10:39:32.425Z,98625.58
2022-09-15T10:40:35.458Z,98631.88
2022-09-15T10:41:38.393Z,98621.83
2022-09-15T10:42:40.935Z,98626.70
2022-09-15T10:43:43.497Z,98628.58
2022-09-15T10:44:45.953Z,98628.98
2022-09-15T10:45:48.452Z,98626.84
2022-09-15T10:46:51.701Z,98630.45
2022-09-15T10:47:54.141Z,98628.95
2022-09-15T10:48:56.596Z,98629.73
2022-09-15T10:49:59.042Z,98628.55
2022-09-15T10:51:02.002Z,98624.05
2022-09-15T10:52:04.724Z,98627.72
2022-09-15T10:53:07.171Z,98623.47
2022-09-15T10:54:09.712Z,98629.24
2022-09-15T10:55:12.161Z,98623.38
2022-09-15T10:56:15.427Z,98617.28
2022-09-15T10:57:17.895Z,98618.50
2022-09-15T10:58:20.340Z,98622.23
2022-09-15T10:59:22.778Z,98615.75
2022-09-15T11:00:25.453Z,98612.89
2022-09-15T11:01:28.120Z,98611.91
2022-09-15T11:02:30.834Z,98612.83
2022-09-15T11:03:33.330Z,98612.56
2022-09-15T11:04:35.765Z,98607.95
2022-09-15T11:05:38.214Z,98608.80
2022-09-15T11:06:40.851Z,98609.62
2022-09-15T11:07:44.438Z,98603.20
2022-09-15T11:08:47.304Z,98615.98
2022-09-15T11:09:49.747Z,98614.60
2022-09-15T11:10:52.390Z,98624.09
2022-09-15T11:11:54.860Z,98618.89
2022-09-15T11:12:57.386Z,98625.80
2022-09-15T11:13:59.820Z,98617.87
2022-09-15T11:15:02.503Z,98621.30
2022-09-15T11:16:05.474Z,98636.25
2022-09-15T11:17:08.193Z,98627.88
2022-09-15T11:18:10.861Z,98629.07
2022-09-15T11:19:13.319Z,98628.98
2022-09-15T11:20:16.170Z,98630.66
2022-09-15T11:21:19.424Z,98628.68
2022-09-15T11:22:21.869Z,98627.79
2022-09-15T11:23:24.440Z,98629.75
2022-09-15T11:24:27.083Z,98622.31
2022-09-15T11:25:29.530Z,98626.61
2022-09-15T11:26:32.489Z,98628.47
2022-09-15T11:27:34.940Z,98637.80
2022-09-15T11:28:37.403Z,98637.45
2022-09-15T11:29:39.880Z,98640.56
2022-09-15T11:30:47.532Z,98646.02
2022-09-15T11:31:47.210Z,98641.58
2022-09-15T11:32:52.918Z,98644.69
2022-09-15T11:33:54.154Z,98644.01
2022-09-15T11:34:56.592Z,98641.29
2022-09-15T11:35:59.026Z,98638.66
2022-09-15T11:37:01.895Z,98629.76
2022-09-15T11:38:04.335Z,98635.86
2022-09-15T11:39:06.807Z,98635.34
2022-09-15T11:40:10.626Z,98637.36
2022-09-15T11:41:13.504Z,98637.25
2022-09-15T11:42:16.359Z,98631.38
2022-09-15T11:43:18.902Z,98633.45
2022-09-15T11:44:21.685Z,98635.20
2022-09-15T11:45:24.509Z,98632.37
2022-09-15T11:46:28.407Z,98635.31
2022-09-15T11:47:31.050Z,98627.57
2022-09-15T11:48:33.690Z,98637.28
2022-09-15T11:49:36.211Z,98635.44
2022-09-15T11:50:39.056Z,98630.80
2022-09-15T11:51:41.508Z,98637.75
2022-09-15T11:52:43.943Z,98631.83
2022-09-15T11:53:46.530Z,98628.78
2022-09-15T11:54:49.205Z,98633.73
2022-09-15T11:55:51.664Z,98632.71
2022-09-15T11:56:54.530Z,98628.55
2022-09-15T11:57:56.976Z,98638.64
2022-09-15T11:58:59.440Z,98631.07
2022-09-15T12:00:02.013Z,98630.86
2022-09-15T12:01:04.555Z,98637.63
2022-09-15T12:02:07.554Z,98628.98
2022-09-15T12:03:10.531Z,98622.18
2022-09-15T12:04:13.242Z,98624.84
2022-09-15T12:05:15.909Z,98627.38
2022-09-15T12:06:20.167Z,98623.50
2022-09-15T12:07:22.624Z,98619.57
2022-09-15T12:08:25.359Z,98621.45
2022-09-15T12:09:27.793Z,98617.95
2022-09-15T12:10:30.488Z,98618.16
2022-09-15T12:11:32.938Z,98615.88
2022-09-15T12:12:35.407Z,98613.64
2022-09-15T12:13:37.844Z,98619.03
2022-09-15T12:14:40.295Z,98614.28
2022-09-15T12:15:42.851Z,98607.55
2022-09-15T12:16:46.144Z,98607.34